createdAt,value
2022-08-02T00:00:34.057Z,99.90
2022-08-02T00:03:00.826Z,99.90
2022-08-02T00:05:27.629Z,99.90
2022-08-02T00:07:54.413Z,99.90
2022-08-02T00:10:21.307Z,99.90
2022-08-02T00:12:48.044Z,99.90
2022-08-02T00:15:16.042Z,99.90
2022-08-02T00:17:47.351Z,99.90
2022-08-02T00:20:16.134Z,99.90
2022-08-02T00:22:42.889Z,99.90
2022-08-02T00:25:10.148Z,99.90
2022-08-02T00:27:36.874Z,99.90
2022-08-02T00:30:04.607Z,99.90
2022-08-02T00:32:31.525Z,99.90
2022-08-02T00:34:58.284Z,99.90
2022-08-02T00:37:25.068Z,99.90
2022-08-02T00:39:51.827Z,99.90
2022-08-02T00:42:18.622Z,99.90
2022-08-02T00:44:45.446Z,99.90
2022-08-02T00:47:13.762Z,99.90
2022-08-02T00:49:46.794Z,99.90
2022-08-02T00:52:13.877Z,99.90
2022-08-02T00:54:40.852Z,99.90
2022-08-02T00:57:07.623Z,99.90
2022-08-02T00:59:34.450Z,99.90
2022-08-02T01:02:01.210Z,99.90
2022-08-02T01:04:31.184Z,99.90
2022-08-02T01:07:12.250Z,99.90
2022-08-02T01:09:42.287Z,99.90
2022-08-02T01:12:09.660Z,99.90
2022-08-02T01:14:37.489Z,99.90
2022-08-02T01:17:10.813Z,99.90
2022-08-02T01:19:51.205Z,99.90
2022-08-02T01:22:59.975Z,99.90
2022-08-02T01:25:42.449Z,99.90
2022-08-02T01:28:28.386Z,99.90
2022-08-02T01:31:10.368Z,99.90
2022-08-02T01:33:44.177Z,99.90
2022-08-02T01:36:13.993Z,99.90
2022-08-02T01:38:46.400Z,99.90
2022-08-02T01:41:19.789Z,99.90
2022-08-02T01:43:49.549Z,99.90
2022-08-02T01:46:17.764Z,99.90
2022-08-02T01:48:47.165Z,99.90
2022-08-02T01:51:17.440Z,99.90
2022-08-02T01:53:48.046Z,99.90
2022-08-02T01:56:16.286Z,99.90
2022-08-02T01:58:45.426Z,99.90
2022-08-02T02:01:18.374Z,99.90
2022-08-02T02:03:47.450Z,99.90
2022-08-02T02:06:15.799Z,99.90
2022-08-02T02:08:44.162Z,99.90
2022-08-02T02:12:09.617Z,99.90
2022-08-02T02:14:00.985Z,99.90
2022-08-02T02:16:28.789Z,99.90
2022-08-02T02:18:55.637Z,99.90
2022-08-02T02:21:22.609Z,99.90
2022-08-02T02:23:50.875Z,99.90
2022-08-02T02:26:20.848Z,99.90
2022-08-02T02:29:02.134Z,99.90
2022-08-02T02:31:32.848Z,99.90
2022-08-02T02:34:04.302Z,99.90
2022-08-02T02:36:34.029Z,99.90
2022-08-02T02:39:04.249Z,99.90
2022-08-02T02:41:31.113Z,99.90
2022-08-02T02:44:01.124Z,99.90
2022-08-02T02:46:30.706Z,99.90
2022-08-02T02:48:57.998Z,99.90
2022-08-02T02:51:25.446Z,99.90
2022-08-02T02:54:29.867Z,99.90
2022-08-02T02:56:42.649Z,99.90
2022-08-02T02:59:10.084Z,99.90
2022-08-02T03:01:57.268Z,99.90
2022-08-02T03:04:25.125Z,99.90
2022-08-02T03:06:52.260Z,99.90
2022-08-02T03:09:19.086Z,99.90
2022-08-02T03:11:46.109Z,99.90
2022-08-02T03:14:14.068Z,99.90
2022-08-02T03:16:46.178Z,99.90
2022-08-02T03:19:13.584Z,99.90
2022-08-02T03:21:42.429Z,99.90
2022-08-02T03:24:09.735Z,99.90
2022-08-02T03:26:36.806Z,99.90
2022-08-02T03:29:09.827Z,99.90
2022-08-02T03:31:41.589Z,99.90
2022-08-02T03:34:08.574Z,99.90
2022-08-02T03:36:36.399Z,99.90
2022-08-02T03:39:04.500Z,99.90
2022-08-02T03:41:31.876Z,99.90
2022-08-02T03:43:59.344Z,99.90
2022-08-02T03:46:26.650Z,99.90
2022-08-02T03:48:54.903Z,99.90
2022-08-02T03:51:22.742Z,99.90
2022-08-02T03:53:49.996Z,99.90
2022-08-02T03:56:17.089Z,99.90
2022-08-02T03:58:48.639Z,99.90
2022-08-02T04:01:16.411Z,99.90
2022-08-02T04:03:43.526Z,99.90
2022-08-02T04:06:10.271Z,99.90
2022-08-02T04:08:38.785Z,99.90
2022-08-02T04:11:24.825Z,99.90
2022-08-02T04:13:52.253Z,99.90
2022-08-02T04:16:37.337Z,99.90
2022-08-02T04:19:06.465Z,99.90
2022-08-02T04:21:48.563Z,99.90
2022-08-02T04:24:24.435Z,99.90
2022-08-02T04:26:54.484Z,99.90
2022-08-02T04:29:25.911Z,99.90
2022-08-02T04:31:54.323Z,99.90
2022-08-02T04:34:21.311Z,99.90
2022-08-02T04:36:48.445Z,99.90
2022-08-02T04:39:15.525Z,99.90
2022-08-02T04:41:45.088Z,99.90
2022-08-02T04:44:13.084Z,99.90
2022-08-02T04:46:40.997Z,99.90
2022-08-02T04:49:07.967Z,99.90
2022-08-02T04:51:39.139Z,99.90
2022-08-02T04:54:09.874Z,99.90
2022-08-02T04:56:38.336Z,99.90
2022-08-02T04:59:06.513Z,99.90
2022-08-02T05:01:34.848Z,99.90
2022-08-02T05:04:01.817Z,99.90
2022-08-02T05:06:28.546Z,99.90
2022-08-02T05:08:55.272Z,99.90
2022-08-02T05:11:36.027Z,99.90
2022-08-02T05:14:04.904Z,99.90
2022-08-02T05:16:32.302Z,99.90
2022-08-02T05:19:00.931Z,99.90
2022-08-02T05:21:28.067Z,99.90
2022-08-02T05:23:54.821Z,99.90
2022-08-02T05:26:21.559Z,99.90
2022-08-02T05:28:48.301Z,99.90
2022-08-02T05:31:15.091Z,99.90
2022-08-02T05:33:42.007Z,99.90
2022-08-02T05:36:09.619Z,99.90
2022-08-02T05:38:37.753Z,99.90
2022-08-02T05:41:05.550Z,99.90
2022-08-02T05:43:32.730Z,99.90
2022-08-02T05:45:59.939Z,99.90
2022-08-02T05:48:31.683Z,99.90
2022-08-02T05:51:05.303Z,99.90
2022-08-02T05:53:35.134Z,99.90
2022-08-02T05:56:31.746Z,99.90
2022-08-02T05:59:04.251Z,99.90
2022-08-02T06:01:39.034Z,99.90
2022-08-02T06:04:10.607Z,99.90
2022-08-02T06:06:43.273Z,99.90
2022-08-02T06:09:15.585Z,99.90
2022-08-02T06:12:01.941Z,99.90
2022-08-02T06:14:41.573Z,99.90
2022-08-02T06:17:09.228Z,99.90
2022-08-02T06:19:51.635Z,99.90
2022-08-02T06:22:40.564Z,99.90
2022-08-02T06:25:47.884Z,99.90
2022-08-02T06:27:55.062Z,99.90
2022-08-02T06:30:22.556Z,99.90
2022-08-02T06:32:52.128Z,99.90
2022-08-02T06:35:19.160Z,99.90
2022-08-02T06:37:58.364Z,99.90
2022-08-02T06:40:50.127Z,99.90
2022-08-02T06:43:41.635Z,99.70
2022-08-02T06:46:37.619Z,99.30
2022-08-02T06:48:56.155Z,98.40
2022-08-02T06:51:23.322Z,98.60
2022-08-02T06:53:50.276Z,98.10
2022-08-02T06:56:17.071Z,98.40
2022-08-02T06:58:43.785Z,98.80
2022-08-02T07:01:10.773Z,99.60
2022-08-02T07:03:39.549Z,99.60
2022-08-02T07:06:10.794Z,99.90
2022-08-02T07:08:38.589Z,99.90
2022-08-02T07:11:06.422Z,99.80
2022-08-02T07:13:36.743Z,99.80
2022-08-02T07:16:07.208Z,99.90
2022-08-02T07:18:34.967Z,99.90
2022-08-02T07:21:01.916Z,99.90
2022-08-02T07:23:28.621Z,99.90
2022-08-02T07:26:02.308Z,99.90
2022-08-02T07:28:30.381Z,99.90
2022-08-02T07:30:57.116Z,99.90
2022-08-02T07:33:37.404Z,99.80
2022-08-02T07:36:09.566Z,99.60
2022-08-02T07:38:39.011Z,99.30
2022-08-02T07:41:07.885Z,99.10
2022-08-02T07:43:35.410Z,99.50
2022-08-02T07:46:02.236Z,99.50
2022-08-02T07:48:29.017Z,98.30
2022-08-02T07:50:55.786Z,98.70
2022-08-02T07:53:49.949Z,98.90
2022-08-02T07:56:09.500Z,99.10
2022-08-02T07:58:36.245Z,97.80
2022-08-02T08:01:03.059Z,98.20
2022-08-02T08:03:29.822Z,98.60
2022-08-02T08:05:56.563Z,98.20
2022-08-02T08:08:23.292Z,98.00
2022-08-02T08:10:50.371Z,98.00
2022-08-02T08:13:17.382Z,98.20
2022-08-02T08:15:51.584Z,98.10
2022-08-02T08:18:18.975Z,97.90
2022-08-02T08:20:45.736Z,97.90
2022-08-02T08:23:12.534Z,97.60
2022-08-02T08:25:41.463Z,97.20
2022-08-02T08:28:09.232Z,97.40
2022-08-02T08:30:36.199Z,97.40
2022-08-02T08:33:03.075Z,97.60
2022-08-02T08:35:29.853Z,97.70
2022-08-02T08:37:56.641Z,97.40
2022-08-02T08:40:25.305Z,96.90
2022-08-02T08:42:52.284Z,96.70
2022-08-02T08:45:19.053Z,97.00
2022-08-02T08:47:51.968Z,96.80
2022-08-02T08:50:26.097Z,96.50
2022-08-02T08:53:03.742Z,96.00
2022-08-02T08:55:31.801Z,96.70
2022-08-02T08:58:00.298Z,96.40
2022-08-02T09:00:27.795Z,96.80
2022-08-02T09:02:54.713Z,96.80
2022-08-02T09:05:21.625Z,96.70
2022-08-02T09:07:50.189Z,96.30
2022-08-02T09:10:36.153Z,96.80
2022-08-02T09:13:38.049Z,96.00
2022-08-02T09:15:59.193Z,96.40
2022-08-02T09:18:44.459Z,96.40
2022-08-02T09:21:11.445Z,96.40
2022-08-02T09:23:43.279Z,96.30
2022-08-02T09:26:15.758Z,96.50
2022-08-02T09:28:46.143Z,96.20
2022-08-02T09:31:15.820Z,96.40
2022-08-02T09:33:44.720Z,96.50
2022-08-02T09:36:16.256Z,95.90
2022-08-02T09:39:03.822Z,96.10
2022-08-02T09:41:32.908Z,95.90
2022-08-02T09:44:05.131Z,95.60
2022-08-02T09:46:39.154Z,95.70
2022-08-02T09:49:16.663Z,95.70
2022-08-02T09:51:47.004Z,95.60
2022-08-02T09:54:19.761Z,95.40
2022-08-02T09:56:52.055Z,95.70
2022-08-02T09:59:21.196Z,95.40
2022-08-02T10:01:51.245Z,95.80
2022-08-02T10:04:52.419Z,95.60
2022-08-02T10:07:22.456Z,95.10
2022-08-02T10:09:50.534Z,95.10
2022-08-02T10:12:17.692Z,95.30
2022-08-02T10:14:45.502Z,95.10
2022-08-02T10:17:12.639Z,95.30
2022-08-02T10:20:02.155Z,95.00
2022-08-02T10:22:27.373Z,95.30
2022-08-02T10:24:54.347Z,95.10
2022-08-02T10:27:21.511Z,95.10
2022-08-02T10:29:53.613Z,95.30
2022-08-02T10:32:29.472Z,95.30
2022-08-02T10:35:18.939Z,94.40
2022-08-02T10:37:54.833Z,94.60
2022-08-02T10:40:26.280Z,94.90
2022-08-02T10:42:54.933Z,95.00
2022-08-02T10:45:23.089Z,94.90
2022-08-02T10:48:00.229Z,94.40
2022-08-02T10:50:49.193Z,94.00
2022-08-02T10:53:29.722Z,93.80
2022-08-02T10:55:59.764Z,94.00
2022-08-02T10:58:30.247Z,93.80
2022-08-02T11:00:58.274Z,93.80
2022-08-02T11:03:42.168Z,93.70
2022-08-02T11:06:25.016Z,93.10
2022-08-02T11:09:32.431Z,93.70
2022-08-02T11:12:18.169Z,93.40
2022-08-02T11:14:59.627Z,93.40
2022-08-02T11:17:28.980Z,92.80
2022-08-02T11:20:11.125Z,92.80
2022-08-02T11:22:39.460Z,93.20
2022-08-02T11:25:24.311Z,92.80
2022-08-02T11:28:07.380Z,92.10
2022-08-02T11:30:34.496Z,92.20
2022-08-02T11:33:01.907Z,92.60
2022-08-02T11:35:37.292Z,92.80
2022-08-02T11:38:19.104Z,93.00
2022-08-02T11:40:47.554Z,92.50
2022-08-02T11:43:22.744Z,92.30
2022-08-02T11:45:51.065Z,92.10
2022-08-02T11:48:39.211Z,92.00
2022-08-02T11:51:16.831Z,92.20
2022-08-02T11:53:50.515Z,91.60
2022-08-02T11:56:25.540Z,91.60
2022-08-02T11:59:08.378Z,91.30
2022-08-02T12:01:45.763Z,91.60
2022-08-02T12:04:19.192Z,91.70
2022-08-02T12:06:56.130Z,92.40
2022-08-02T12:09:25.074Z,92.00
2022-08-02T12:11:52.161Z,91.60
2022-08-02T12:14:19.226Z,91.50
2022-08-02T12:17:06.277Z,90.60
2022-08-02T12:19:33.845Z,91.10
2022-08-02T12:22:16.398Z,91.20
2022-08-02T12:24:47.241Z,90.60
2022-08-02T12:27:37.554Z,90.60
2022-08-02T12:30:12.830Z,90.20
2022-08-02T12:32:40.497Z,90.60
2022-08-02T12:35:11.914Z,89.00
2022-08-02T12:37:41.209Z,90.20
2022-08-02T12:40:25.588Z,89.70
2022-08-02T12:42:58.469Z,90.50
2022-08-02T12:45:27.564Z,90.00
2022-08-02T12:48:08.233Z,90.50
2022-08-02T12:50:37.495Z,90.30
2022-08-02T12:53:07.402Z,90.00
2022-08-02T12:56:01.845Z,90.60
2022-08-02T12:58:22.764Z,90.30
2022-08-02T13:00:55.788Z,90.20
2022-08-02T13:04:07.690Z,90.20
2022-08-02T13:06:32.305Z,90.40
2022-08-02T13:09:00.809Z,89.70
2022-08-02T13:11:28.225Z,90.20
2022-08-02T13:13:55.146Z,89.40
2022-08-02T13:16:31.092Z,90.00
2022-08-02T13:18:58.913Z,89.10
2022-08-02T13:21:40.972Z,89.10
2022-08-02T13:24:32.710Z,87.10
2022-08-02T13:27:05.134Z,88.40
2022-08-02T13:29:35.678Z,88.80
2022-08-02T13:32:02.504Z,88.70
2022-08-02T13:34:29.320Z,88.90
2022-08-02T13:36:56.127Z,89.50
2022-08-02T13:39:22.878Z,90.40
2022-08-02T13:41:49.936Z,88.30
2022-08-02T13:44:16.733Z,87.20
2022-08-02T13:46:45.279Z,88.80
2022-08-02T13:49:19.541Z,88.20
2022-08-02T13:51:49.879Z,88.50
2022-08-02T13:54:16.921Z,88.80
2022-08-02T13:56:43.862Z,88.20
2022-08-02T13:59:57.504Z,89.10
2022-08-02T14:01:58.856Z,87.40
2022-08-02T14:04:26.592Z,88.10
2022-08-02T14:06:53.800Z,86.70
2022-08-02T14:09:20.568Z,86.90
2022-08-02T14:11:47.921Z,87.60
2022-08-02T14:14:16.997Z,87.10
2022-08-02T14:16:45.302Z,87.10
2022-08-02T14:19:16.813Z,86.90
2022-08-02T14:21:46.556Z,85.80
2022-08-02T14:24:17.336Z,87.20
2022-08-02T14:26:45.844Z,86.40
2022-08-02T14:29:13.615Z,86.20
2022-08-02T14:31:44.231Z,85.30
2022-08-02T14:34:12.868Z,85.70
2022-08-02T14:36:39.767Z,86.50
2022-08-02T14:39:07.071Z,86.20
2022-08-02T14:41:59.384Z,86.30
2022-08-02T14:44:23.407Z,85.50
2022-08-02T14:46:51.547Z,85.30
2022-08-02T14:49:26.129Z,85.60
2022-08-02T14:51:57.180Z,84.60
2022-08-02T14:54:30.475Z,81.10
2022-08-02T14:57:03.340Z,82.70
2022-08-02T14:59:30.668Z,83.30
2022-08-02T15:01:58.671Z,83.70
2022-08-02T15:04:26.092Z,84.10
2022-08-02T15:06:53.776Z,84.40
2022-08-02T15:09:21.145Z,84.50
2022-08-02T15:11:49.414Z,83.70
2022-08-02T15:14:21.906Z,84.40
2022-08-02T15:16:58.154Z,84.60
2022-08-02T15:19:36.902Z,84.90
2022-08-02T15:22:16.562Z,85.20
2022-08-02T15:24:46.030Z,83.90
2022-08-02T15:27:15.774Z,84.70
2022-08-02T15:29:44.054Z,85.60
2022-08-02T15:32:11.684Z,85.60
2022-08-02T15:34:39.276Z,86.10
2022-08-02T15:37:06.061Z,86.10
2022-08-02T15:39:32.846Z,86.40
2022-08-02T15:41:59.943Z,86.60
2022-08-02T15:44:26.771Z,86.00
2022-08-02T15:46:54.304Z,86.10
2022-08-02T15:49:23.686Z,87.10
2022-08-02T15:51:51.744Z,87.80
2022-08-02T15:54:18.772Z,88.20
2022-08-02T15:56:45.763Z,88.80
2022-08-02T15:59:12.643Z,89.50
2022-08-02T16:01:43.595Z,89.20
2022-08-02T16:04:13.800Z,88.60
2022-08-02T16:06:40.628Z,89.70
2022-08-02T16:09:07.381Z,89.60
2022-08-02T16:11:34.198Z,89.30
2022-08-02T16:14:01.037Z,90.50
2022-08-02T16:16:30.361Z,90.50
2022-08-02T16:18:57.874Z,90.60
2022-08-02T16:21:25.058Z,90.40
2022-08-02T16:23:59.066Z,90.50
2022-08-02T16:26:31.439Z,90.20
2022-08-02T16:28:58.807Z,90.40
2022-08-02T16:31:25.638Z,90.40
2022-08-02T16:33:56.191Z,90.80
2022-08-02T16:36:24.420Z,90.40
2022-08-02T16:38:51.369Z,90.70
2022-08-02T16:41:18.238Z,90.80
2022-08-02T16:43:45.021Z,90.70
2022-08-02T16:46:11.876Z,90.80
2022-08-02T16:48:39.803Z,91.10
2022-08-02T16:51:13.539Z,91.10
2022-08-02T16:54:00.276Z,91.10
2022-08-02T16:56:30.662Z,91.40
2022-08-02T16:59:00.125Z,91.60
2022-08-02T17:02:10.978Z,91.90
2022-08-02T17:04:15.914Z,92.30
2022-08-02T17:06:47.842Z,92.60
2022-08-02T17:12:17.377Z,92.60
2022-08-02T17:14:55.652Z,93.70
2022-08-02T17:17:33.659Z,92.70
2022-08-02T17:20:02.437Z,94.50
2022-08-02T17:22:29.253Z,93.90
2022-08-02T17:24:56.371Z,93.70
2022-08-02T17:27:26.155Z,93.80
2022-08-02T17:29:53.646Z,94.20
2022-08-02T17:32:20.513Z,95.10
2022-08-02T17:34:56.616Z,94.80
2022-08-02T17:37:27.218Z,94.40
2022-08-02T17:39:56.946Z,94.20
2022-08-02T17:42:24.912Z,94.60
2022-08-02T17:45:00.986Z,94.80
2022-08-02T17:47:42.411Z,94.90
2022-08-02T17:50:10.381Z,95.30
2022-08-02T17:52:51.517Z,95.10
2022-08-02T17:55:20.663Z,94.80
2022-08-02T17:57:57.438Z,94.80
2022-08-02T18:00:35.840Z,95.10
2022-08-02T18:03:05.798Z,95.40
2022-08-02T18:05:41.615Z,94.60
2022-08-02T18:08:21.653Z,93.40
2022-08-02T18:10:50.057Z,93.00
2022-08-02T18:13:16.851Z,93.20
2022-08-02T18:15:45.742Z,93.20
2022-08-02T18:18:14.406Z,93.90
2022-08-02T18:20:42.049Z,94.00
2022-08-02T18:23:11.090Z,93.10
2022-08-02T18:25:47.713Z,93.50
2022-08-02T18:28:16.313Z,94.10
2022-08-02T18:30:43.995Z,93.60
2022-08-02T18:33:57.103Z,94.00
2022-08-02T18:35:57.618Z,94.10
2022-08-02T18:38:27.884Z,93.80
2022-08-02T18:40:55.174Z,94.50
2022-08-02T18:43:25.732Z,95.20
2022-08-02T18:46:07.172Z,95.10
2022-08-02T18:48:44.261Z,94.80
2022-08-02T18:51:14.158Z,94.40
2022-08-02T18:53:41.508Z,94.50
2022-08-02T18:56:19.829Z,95.00
2022-08-02T18:58:55.339Z,94.40
2022-08-02T19:01:31.870Z,94.30
2022-08-02T19:04:01.139Z,94.40
2022-08-02T19:06:29.119Z,94.50
2022-08-02T19:09:06.200Z,94.70
2022-08-02T19:11:41.266Z,94.70
2022-08-02T19:14:14.807Z,95.00
2022-08-02T19:16:51.270Z,94.80
2022-08-02T19:19:20.374Z,95.20
2022-08-02T19:22:17.674Z,95.10
2022-08-02T19:24:34.082Z,95.20
2022-08-02T19:27:13.462Z,95.40
2022-08-02T19:29:42.662Z,95.20
2022-08-02T19:32:41.946Z,95.10
2022-08-02T19:35:19.838Z,95.20
2022-08-02T19:38:04.550Z,95.40
2022-08-02T19:40:31.409Z,95.20
2022-08-02T19:44:20.879Z,95.20
2022-08-02T19:45:50.611Z,95.30
2022-08-02T19:48:23.845Z,94.90
2022-08-02T19:50:56.699Z,94.90
2022-08-02T19:53:28.973Z,94.80
2022-08-02T19:56:21.119Z,94.60
2022-08-02T19:58:52.062Z,94.70
2022-08-02T20:01:23.541Z,94.80
2022-08-02T20:03:55.118Z,94.50
2022-08-02T20:06:28.585Z,94.20
2022-08-02T20:08:59.280Z,94.40
2022-08-02T20:11:35.015Z,93.80
2022-08-02T20:14:03.899Z,94.10
2022-08-02T20:16:32.721Z,93.60
2022-08-02T20:19:00.770Z,93.70
2022-08-02T20:21:35.845Z,93.70
2022-08-02T20:24:06.173Z,93.80
2022-08-02T20:26:35.196Z,93.60
2022-08-02T20:29:03.931Z,93.80
2022-08-02T20:31:31.067Z,93.80
2022-08-02T20:33:57.920Z,93.70
2022-08-02T20:36:28.541Z,93.80
2022-08-02T20:38:55.717Z,94.00
2022-08-02T20:41:23.936Z,94.00
2022-08-02T20:44:04.263Z,93.90
2022-08-02T20:46:31.018Z,93.90
2022-08-02T20:49:01.312Z,94.00
2022-08-02T20:51:33.850Z,93.80
2022-08-02T20:54:00.823Z,94.00
2022-08-02T20:56:29.340Z,94.10
2022-08-02T20:59:03.766Z,93.90
2022-08-02T21:01:36.797Z,93.90
2022-08-02T21:04:04.096Z,94.10
2022-08-02T21:06:31.358Z,94.00
2022-08-02T21:11:50.741Z,94.50
2022-08-02T21:14:18.641Z,94.40
2022-08-02T21:16:45.561Z,94.30
2022-08-02T21:19:12.514Z,94.40
2022-08-02T21:21:39.259Z,94.60
2022-08-02T21:24:06.137Z,94.50
2022-08-02T21:26:33.328Z,94.70
2022-08-02T21:29:04.411Z,94.70
2022-08-02T21:31:35.472Z,95.00
2022-08-02T21:34:03.797Z,95.00
2022-08-02T21:36:49.027Z,95.20
2022-08-02T21:39:17.623Z,96.10
2022-08-02T21:41:46.243Z,96.70
2022-08-02T21:44:18.711Z,96.60
2022-08-02T21:46:48.930Z,96.50
2022-08-02T21:49:20.843Z,96.70
2022-08-02T21:51:54.631Z,96.70
2022-08-02T21:54:22.508Z,96.60
2022-08-02T21:56:53.436Z,96.60
2022-08-02T21:59:25.988Z,96.90
2022-08-02T22:01:56.718Z,96.80
2022-08-02T22:04:25.892Z,97.00
2022-08-02T22:06:55.059Z,97.00
2022-08-02T22:09:44.685Z,97.20
2022-08-02T22:12:17.042Z,97.30
2022-08-02T22:14:54.890Z,97.50
2022-08-02T22:17:50.534Z,97.60
2022-08-02T22:20:12.229Z,97.70
2022-08-02T22:22:39.901Z,98.00
2022-08-02T22:25:21.510Z,98.10
2022-08-02T22:28:34.794Z,98.00
2022-08-02T22:30:42.298Z,98.10
2022-08-02T22:33:33.576Z,98.10
2022-08-02T22:36:01.191Z,98.30
2022-08-02T22:38:28.704Z,98.30
2022-08-02T22:40:55.672Z,98.20
2022-08-02T22:43:23.202Z,98.30
2022-08-02T22:45:50.667Z,98.50
2022-08-02T22:48:17.636Z,98.60
2022-08-02T22:50:44.345Z,98.70
2022-08-02T22:53:11.128Z,98.80
2022-08-02T22:55:41.550Z,99.00
2022-08-02T22:58:09.741Z,99.20
2022-08-02T22:58:49.768Z,92.30
2022-08-02T22:59:11.661Z,94.40
2022-08-02T23:00:36.468Z,99.40
2022-08-02T23:03:06.616Z,99.50
2022-08-02T23:05:33.898Z,99.50
2022-08-02T23:08:00.822Z,99.50
2022-08-02T23:10:28.111Z,99.70
2022-08-02T23:12:58.868Z,99.50
2022-08-02T23:15:26.375Z,99.80
2022-08-02T23:18:12.999Z,99.90
2022-08-02T23:20:40.787Z,99.90
2022-08-02T23:23:11.564Z,99.90
2022-08-02T23:25:38.607Z,99.90
2022-08-02T23:28:05.440Z,99.90
2022-08-02T23:30:32.141Z,99.90
2022-08-02T23:32:58.897Z,99.90
2022-08-02T23:35:25.623Z,99.90
2022-08-02T23:37:59.994Z,99.90
2022-08-02T23:40:39.006Z,99.90
2022-08-02T23:43:14.271Z,99.90
2022-08-02T23:45:44.674Z,99.90
2022-08-02T23:48:11.498Z,99.90
2022-08-02T23:50:38.294Z,99.90
2022-08-02T23:53:05.052Z,99.90
2022-08-02T23:55:31.813Z,99.90
2022-08-02T23:57:58.555Z,99.90
